sensor_id;sensor_type;location;lat;lon;timestamp;pressure;altitude;pressure_sealevel;temperature;humidity
72925;BME280;61070;50.794;7.054;2022-11-21T00:01:46;99750.69;;;7.18;98.86
72925;BME280;61070;50.794;7.054;2022-11-21T00:04:11;99749.88;;;7.11;98.96
72925;BME280;61070;50.794;7.054;2022-11-21T00:06:36;99746.25;;;7.20;97.57
72925;BME280;61070;50.794;7.054;2022-11-21T00:09:01;99745.34;;;7.22;96.78
72925;BME280;61070;50.794;7.054;2022-11-21T00:11:27;99756.00;;;7.15;96.32
72925;BME280;61070;50.794;7.054;2022-11-21T00:13:52;99758.63;;;7.13;97.90
72925;BME280;61070;50.794;7.054;2022-11-21T00:16:17;99759.56;;;7.09;97.26
72925;BME280;61070;50.794;7.054;2022-11-21T00:18:43;99762.00;;;7.23;96.93
72925;BME280;61070;50.794;7.054;2022-11-21T00:21:13;99759.47;;;7.17;96.03
72925;BME280;61070;50.794;7.054;2022-11-21T00:23:38;99754.97;;;7.25;96.52
72925;BME280;61070;50.794;7.054;2022-11-21T00:26:05;99764.63;;;7.24;94.76
72925;BME280;61070;50.794;7.054;2022-11-21T00:28:31;99761.13;;;7.25;94.61
72925;BME280;61070;50.794;7.054;2022-11-21T00:30:56;99777.66;;;7.34;94.29
72925;BME280;61070;50.794;7.054;2022-11-21T00:33:22;99775.97;;;7.31;93.72
72925;BME280;61070;50.794;7.054;2022-11-21T00:35:47;99788.28;;;7.29;94.53
72925;BME280;61070;50.794;7.054;2022-11-21T00:38:13;99776.84;;;7.30;94.47
72925;BME280;61070;50.794;7.054;2022-11-21T00:40:39;99772.50;;;7.27;95.59
72925;BME280;61070;50.794;7.054;2022-11-21T00:43:04;99766.31;;;7.30;94.18
72925;BME280;61070;50.794;7.054;2022-11-21T00:45:29;99765.44;;;7.29;93.80
72925;BME280;61070;50.794;7.054;2022-11-21T00:47:54;99771.50;;;7.35;93.48
72925;BME280;61070;50.794;7.054;2022-11-21T00:50:20;99763.59;;;7.35;93.45
72925;BME280;61070;50.794;7.054;2022-11-21T00:52:45;99762.56;;;7.46;93.30
72925;BME280;61070;50.794;7.054;2022-11-21T00:55:10;99759.06;;;7.44;92.74
72925;BME280;61070;50.794;7.054;2022-11-21T00:57:35;99759.34;;;7.27;93.93
72925;BME280;61070;50.794;7.054;2022-11-21T01:00:01;99760.16;;;7.31;93.78
72925;BME280;61070;50.794;7.054;2022-11-21T01:02:26;99758.34;;;7.33;94.08
72925;BME280;61070;50.794;7.054;2022-11-21T01:04:51;99764.63;;;7.26;94.63
72925;BME280;61070;50.794;7.054;2022-11-21T01:07:17;99758.44;;;7.28;93.13
72925;BME280;61070;50.794;7.054;2022-11-21T01:09:42;99763.00;;;7.16;94.47
72925;BME280;61070;50.794;7.054;2022-11-21T01:12:07;99753.28;;;7.19;93.30
72925;BME280;61070;50.794;7.054;2022-11-21T01:14:32;99753.34;;;7.13;93.71
72925;BME280;61070;50.794;7.054;2022-11-21T01:16:58;99754.25;;;7.14;92.96
72925;BME280;61070;50.794;7.054;2022-11-21T01:19:23;99759.38;;;7.23;93.15
72925;BME280;61070;50.794;7.054;2022-11-21T01:21:48;99759.38;;;7.23;93.81
72925;BME280;61070;50.794;7.054;2022-11-21T01:24:14;99764.63;;;7.24;93.23
72925;BME280;61070;50.794;7.054;2022-11-21T01:26:39;99770.00;;;7.18;93.30
72925;BME280;61070;50.794;7.054;2022-11-21T01:29:05;99766.47;;;7.19;92.84
72925;BME280;61070;50.794;7.054;2022-11-21T01:31:31;99762.03;;;7.21;93.08
72925;BME280;61070;50.794;7.054;2022-11-21T01:33:58;99767.47;;;7.09;93.41
72925;BME280;61070;50.794;7.054;2022-11-21T01:36:26;99770.94;;;7.14;93.96
72925;BME280;61070;50.794;7.054;2022-11-21T01:38:53;99777.00;;;7.19;93.41
72925;BME280;61070;50.794;7.054;2022-11-21T01:41:26;99777.06;;;7.13;93.32
72925;BME280;61070;50.794;7.054;2022-11-21T01:43:54;99768.31;;;7.11;93.57
72925;BME280;61070;50.794;7.054;2022-11-21T01:46:20;99771.94;;;7.04;94.05
72925;BME280;61070;50.794;7.054;2022-11-21T01:48:56;99771.97;;;7.03;94.52
72925;BME280;61070;50.794;7.054;2022-11-21T01:51:30;99774.59;;;7.01;94.41
72925;BME280;61070;50.794;7.054;2022-11-21T01:56:58;99759.72;;;6.97;95.31
72925;BME280;61070;50.794;7.054;2022-11-21T01:59:32;99766.69;;;7.03;94.26
72925;BME280;61070;50.794;7.054;2022-11-21T02:02:00;99764.16;;;6.95;95.00
72925;BME280;61070;50.794;7.054;2022-11-21T02:04:30;99770.28;;;6.95;94.10
72925;BME280;61070;50.794;7.054;2022-11-21T02:06:58;99766.13;;;6.75;95.10
72925;BME280;61070;50.794;7.054;2022-11-21T02:09:24;99772.34;;;6.69;95.54
72925;BME280;61070;50.794;7.054;2022-11-21T02:11:53;99774.91;;;6.74;95.33
72925;BME280;61070;50.794;7.054;2022-11-21T02:14:19;99781.06;;;6.74;94.64
72925;BME280;61070;50.794;7.054;2022-11-21T02:16:45;99778.41;;;6.76;94.55
72925;BME280;61070;50.794;7.054;2022-11-21T02:19:16;99778.31;;;6.85;93.60
72925;BME280;61070;50.794;7.054;2022-11-21T02:21:59;99783.63;;;6.80;93.38
72925;BME280;61070;50.794;7.054;2022-11-21T02:24:46;99777.44;;;6.84;93.11
72925;BME280;61070;50.794;7.054;2022-11-21T02:27:13;99781.97;;;6.71;93.65
72925;BME280;61070;50.794;7.054;2022-11-21T02:29:40;99774.03;;;6.75;93.90
72925;BME280;61070;50.794;7.054;2022-11-21T02:32:05;99783.66;;;6.76;93.75
72925;BME280;61070;50.794;7.054;2022-11-21T02:34:31;99779.41;;;6.64;93.92
72925;BME280;61070;50.794;7.054;2022-11-21T02:36:57;99782.06;;;6.62;93.63
72925;BME280;61070;50.794;7.054;2022-11-21T02:39:34;99780.47;;;6.49;94.67
72925;BME280;61070;50.794;7.054;2022-11-21T02:47:41;99789.16;;;6.57;94.55
72925;BME280;61070;50.794;7.054;2022-11-21T02:50:24;99781.34;;;6.45;95.42
72925;BME280;61070;50.794;7.054;2022-11-21T02:52:50;99785.69;;;6.51;94.81
72925;BME280;61070;50.794;7.054;2022-11-21T02:55:16;99782.13;;;6.58;93.98
72925;BME280;61070;50.794;7.054;2022-11-21T02:57:41;99785.75;;;6.46;94.81
72925;BME280;61070;50.794;7.054;2022-11-21T03:00:08;99792.78;;;6.46;95.17
72925;BME280;61070;50.794;7.054;2022-11-21T03:02:34;99783.19;;;6.38;95.50
72925;BME280;61070;50.794;7.054;2022-11-21T03:05:00;99780.53;;;6.40;95.93
72925;BME280;61070;50.794;7.054;2022-11-21T03:07:25;99789.38;;;6.31;96.24
72925;BME280;61070;50.794;7.054;2022-11-21T03:09:51;99787.59;;;6.33;95.78
72925;BME280;61070;50.794;7.054;2022-11-21T03:12:16;99797.22;;;6.37;95.83
72925;BME280;61070;50.794;7.054;2022-11-21T03:14:41;99790.16;;;6.42;95.34
72925;BME280;61070;50.794;7.054;2022-11-21T03:17:06;99795.53;;;6.30;96.33
72925;BME280;61070;50.794;7.054;2022-11-21T03:19:32;99791.22;;;6.25;97.27
72925;BME280;61070;50.794;7.054;2022-11-21T03:21:57;99798.16;;;6.32;96.51
72925;BME280;61070;50.794;7.054;2022-11-21T03:24:22;99800.78;;;6.35;96.48
72925;BME280;61070;50.794;7.054;2022-11-21T03:26:47;99798.91;;;6.43;96.17
72925;BME280;61070;50.794;7.054;2022-11-21T03:29:13;99791.91;;;6.42;95.64
72925;BME280;61070;50.794;7.054;2022-11-21T03:31:38;99804.19;;;6.43;95.62
72925;BME280;61070;50.794;7.054;2022-11-21T03:34:04;99798.13;;;6.36;96.21
72925;BME280;61070;50.794;7.054;2022-11-21T03:36:29;99793.63;;;6.45;95.65
72925;BME280;61070;50.794;7.054;2022-11-21T03:38:55;99798.94;;;6.41;95.92
72925;BME280;61070;50.794;7.054;2022-11-21T03:41:22;99789.19;;;6.51;94.74
72925;BME280;61070;50.794;7.054;2022-11-21T03:44:02;99795.47;;;6.38;96.12
72925;BME280;61070;50.794;7.054;2022-11-21T03:46:28;99804.19;;;6.43;96.32
72925;BME280;61070;50.794;7.054;2022-11-21T03:48:54;99795.38;;;6.49;95.39
72925;BME280;61070;50.794;7.054;2022-11-21T03:51:20;99791.03;;;6.41;95.74
72925;BME280;61070;50.794;7.054;2022-11-21T03:53:45;99797.91;;;6.59;94.72
72925;BME280;61070;50.794;7.054;2022-11-21T03:56:11;99798.75;;;6.60;94.56
72925;BME280;61070;50.794;7.054;2022-11-21T03:58:36;99784.88;;;6.46;96.04
72925;BME280;61070;50.794;7.054;2022-11-21T04:01:02;99800.75;;;6.36;96.58
72925;BME280;61070;50.794;7.054;2022-11-21T04:03:27;99796.28;;;6.46;95.73
72925;BME280;61070;50.794;7.054;2022-11-21T04:05:53;99799.78;;;6.45;96.19
72925;BME280;61070;50.794;7.054;2022-11-21T04:08:18;99796.28;;;6.43;95.85
72925;BME280;61070;50.794;7.054;2022-11-21T04:10:47;99787.53;;;6.41;95.67
72925;BME280;61070;50.794;7.054;2022-11-21T04:13:13;99799.88;;;6.33;96.09
72925;BME280;61070;50.794;7.054;2022-11-21T04:15:40;99798.91;;;6.46;95.92
72925;BME280;61070;50.794;7.054;2022-11-21T04:18:05;99797.19;;;6.42;95.51
72925;BME280;61070;50.794;7.054;2022-11-21T04:20:31;99809.56;;;6.31;96.70
72925;BME280;61070;50.794;7.054;2022-11-21T04:22:56;99804.34;;;6.28;96.98
72925;BME280;61070;50.794;7.054;2022-11-21T04:25:21;99803.44;;;6.30;96.61
72925;BME280;61070;50.794;7.054;2022-11-21T04:27:46;99805.25;;;6.21;97.19
72925;BME280;61070;50.794;7.054;2022-11-21T04:30:12;99793.00;;;6.20;97.44
72925;BME280;61070;50.794;7.054;2022-11-21T04:32:37;99796.50;;;6.23;97.48
72925;BME280;61070;50.794;7.054;2022-11-21T04:35:03;99797.47;;;6.13;98.24
72925;BME280;61070;50.794;7.054;2022-11-21T04:37:28;99799.22;;;6.09;98.49
72925;BME280;61070;50.794;7.054;2022-11-21T04:39:54;99803.53;;;6.20;98.10
72925;BME280;61070;50.794;7.054;2022-11-21T04:42:19;99795.53;;;6.30;96.91
72925;BME280;61070;50.794;7.054;2022-11-21T04:44:44;99793.94;;;6.14;98.11
72925;BME280;61070;50.794;7.054;2022-11-21T04:47:09;99793.97;;;6.08;98.59
72925;BME280;61070;50.794;7.054;2022-11-21T04:49:35;99793.09;;;6.07;98.40
72925;BME280;61070;50.794;7.054;2022-11-21T04:52:00;99800.19;;;6.02;99.37
72925;BME280;61070;50.794;7.054;2022-11-21T04:54:25;99804.56;;;6.00;99.45
72925;BME280;61070;50.794;7.054;2022-11-21T04:56:50;99803.72;;;5.97;99.82
72925;BME280;61070;50.794;7.054;2022-11-21T04:59:16;99803.72;;;5.95;100.00
72925;BME280;61070;50.794;7.054;2022-11-21T05:01:41;99796.75;;;5.90;100.00
72925;BME280;61070;50.794;7.054;2022-11-21T05:04:06;99808.06;;;6.02;100.00
72925;BME280;61070;50.794;7.054;2022-11-21T05:06:31;99807.19;;;6.02;100.00
72925;BME280;61070;50.794;7.054;2022-11-21T05:08:57;99801.94;;;6.00;100.00
72925;BME280;61070;50.794;7.054;2022-11-21T05:11:22;99808.94;;;5.98;100.00
72925;BME280;61070;50.794;7.054;2022-11-21T05:14:06;99800.19;;;5.98;100.00
72925;BME280;61070;50.794;7.054;2022-11-21T05:16:32;99793.22;;;5.95;100.00
72925;BME280;61070;50.794;7.054;2022-11-21T05:18:57;99789.66;;;6.04;100.00
72925;BME280;61070;50.794;7.054;2022-11-21T05:21:22;99794.06;;;6.00;100.00
72925;BME280;61070;50.794;7.054;2022-11-21T05:23:48;99788.00;;;5.84;100.00
72925;BME280;61070;50.794;7.054;2022-11-21T05:26:13;99781.94;;;5.78;100.00
72925;BME280;61070;50.794;7.054;2022-11-21T05:28:38;99781.06;;;5.76;100.00
72925;BME280;61070;50.794;7.054;2022-11-21T05:31:03;99779.28;;;5.79;100.00
72925;BME280;61070;50.794;7.054;2022-11-21T05:33:29;99786.38;;;5.70;100.00
72925;BME280;61070;50.794;7.054;2022-11-21T05:35:54;99786.38;;;5.70;100.00
72925;BME280;61070;50.794;7.054;2022-11-21T05:38:19;99788.09;;;5.74;100.00
72925;BME280;61070;50.794;7.054;2022-11-21T05:40:44;99792.44;;;5.76;100.00
72925;BME280;61070;50.794;7.054;2022-11-21T05:43:11;99797.56;;;5.98;100.00
72925;BME280;61070;50.794;7.054;2022-11-21T05:45:55;99801.03;;;6.03;100.00
72925;BME280;61070;50.794;7.054;2022-11-21T05:48:20;99788.78;;;5.99;100.00
72925;BME280;61070;50.794;7.054;2022-11-21T05:50:47;99786.09;;;6.06;100.00
72925;BME280;61070;50.794;7.054;2022-11-21T05:53:13;99783.56;;;6.00;100.00
72925;BME280;61070;50.794;7.054;2022-11-21T05:55:39;99781.72;;;6.07;100.00
72925;BME280;61070;50.794;7.054;2022-11-21T05:58:04;99784.38;;;6.05;100.00
72925;BME280;61070;50.794;7.054;2022-11-21T06:00:29;99783.50;;;6.03;100.00
72925;BME280;61070;50.794;7.054;2022-11-21T06:02:55;99786.09;;;6.06;100.00
72925;BME280;61070;50.794;7.054;2022-11-21T06:05:39;99778.16;;;6.14;100.00
72925;BME280;61070;50.794;7.054;2022-11-21T06:08:05;99782.44;;;6.26;100.00
72925;BME280;61070;50.794;7.054;2022-11-21T06:10:30;99782.47;;;6.24;100.00
72925;BME280;61070;50.794;7.054;2022-11-21T06:12:59;99779.03;;;6.15;100.00
72925;BME280;61070;50.794;7.054;2022-11-21T06:15:24;99785.06;;;6.27;100.00
72925;BME280;61070;50.794;7.054;2022-11-21T06:17:50;99785.97;;;6.25;100.00
72925;BME280;61070;50.794;7.054;2022-11-21T06:20:15;99783.38;;;6.17;100.00
72925;BME280;61070;50.794;7.054;2022-11-21T06:22:40;99782.47;;;6.20;100.00
72925;BME280;61070;50.794;7.054;2022-11-21T06:25:06;99781.63;;;6.18;100.00
72925;BME280;61070;50.794;7.054;2022-11-21T06:27:31;99778.09;;;6.20;100.00
72925;BME280;61070;50.794;7.054;2022-11-21T06:29:56;99772.91;;;6.14;100.00
72925;BME280;61070;50.794;7.054;2022-11-21T06:32:22;99769.38;;;6.15;100.00
72925;BME280;61070;50.794;7.054;2022-11-21T06:34:47;99770.31;;;6.08;100.00
72925;BME280;61070;50.794;7.054;2022-11-21T06:37:12;99769.44;;;6.07;100.00
72925;BME280;61070;50.794;7.054;2022-11-21T06:39:37;99773.69;;;6.22;100.00
72925;BME280;61070;50.794;7.054;2022-11-21T06:42:03;99770.19;;;6.22;100.00
72925;BME280;61070;50.794;7.054;2022-11-21T06:44:28;99771.03;;;6.27;100.00
72925;BME280;61070;50.794;7.054;2022-11-21T06:46:53;99773.81;;;6.10;100.00
72925;BME280;61070;50.794;7.054;2022-11-21T06:49:19;99783.47;;;6.06;100.00
72925;BME280;61070;50.794;7.054;2022-11-21T06:51:46;99780.03;;;6.00;100.00
72925;BME280;61070;50.794;7.054;2022-11-21T06:54:11;99790.63;;;5.92;100.00
72925;BME280;61070;50.794;7.054;2022-11-21T06:56:36;99781.88;;;5.84;100.00
72925;BME280;61070;50.794;7.054;2022-11-21T06:59:02;99775.81;;;5.79;100.00
72925;BME280;61070;50.794;7.054;2022-11-21T07:01:27;99787.19;;;5.75;100.00
72925;BME280;61070;50.794;7.054;2022-11-21T07:03:52;99785.38;;;5.83;100.00
72925;BME280;61070;50.794;7.054;2022-11-21T07:06:18;99786.28;;;5.82;100.00
72925;BME280;61070;50.794;7.054;2022-11-21T07:08:43;99789.81;;;5.78;100.00
72925;BME280;61070;50.794;7.054;2022-11-21T07:11:10;99788.06;;;5.80;100.00
72925;BME280;61070;50.794;7.054;2022-11-21T07:13:36;99784.50;;;5.84;100.00
72925;BME280;61070;50.794;7.054;2022-11-21T07:16:09;99788.00;;;5.86;100.00
72925;BME280;61070;50.794;7.054;2022-11-21T07:18:35;99786.19;;;5.96;100.00
72925;BME280;61070;50.794;7.054;2022-11-21T07:21:03;99779.22;;;5.93;100.00
72925;BME280;61070;50.794;7.054;2022-11-21T07:23:30;99782.66;;;5.98;100.00
72925;BME280;61070;50.794;7.054;2022-11-21T07:25:59;99780.03;;;5.98;100.00
72925;BME280;61070;50.794;7.054;2022-11-21T07:28:26;99780.88;;;6.03;100.00
72925;BME280;61070;50.794;7.054;2022-11-21T07:30:57;99779.09;;;6.07;100.00
72925;BME280;61070;50.794;7.054;2022-11-21T07:33:23;99782.66;;;6.01;100.00
72925;BME280;61070;50.794;7.054;2022-11-21T07:35:48;99773.00;;;6.03;100.00
72925;BME280;61070;50.794;7.054;2022-11-21T07:38:13;99776.47;;;6.05;100.00
72925;BME280;61070;50.794;7.054;2022-11-21T07:40:39;99772.03;;;6.10;100.00
72925;BME280;61070;50.794;7.054;2022-11-21T07:43:05;99778.16;;;6.11;100.00
72925;BME280;61070;50.794;7.054;2022-11-21T07:45:31;99776.31;;;6.25;99.31
72925;BME280;61070;50.794;7.054;2022-11-21T07:48:01;99778.09;;;6.23;99.99
72925;BME280;61070;50.794;7.054;2022-11-21T07:50:27;99773.63;;;6.30;99.77
72925;BME280;61070;50.794;7.054;2022-11-21T07:53:00;99768.38;;;6.28;99.20
72925;BME280;61070;50.794;7.054;2022-11-21T07:55:26;99764.03;;;6.26;100.00
72925;BME280;61070;50.794;7.054;2022-11-21T07:58:07;99766.59;;;6.32;99.86
72925;BME280;61070;50.794;7.054;2022-11-21T08:00:34;99765.69;;;6.36;98.83
72925;BME280;61070;50.794;7.054;2022-11-21T08:02:59;99770.94;;;6.36;99.19
72925;BME280;61070;50.794;7.054;2022-11-21T08:05:25;99763.91;;;6.38;98.86
72925;BME280;61070;50.794;7.054;2022-11-21T08:07:50;99758.66;;;6.38;99.29
72925;BME280;61070;50.794;7.054;2022-11-21T08:10:17;99756.03;;;6.33;98.83
72925;BME280;61070;50.794;7.054;2022-11-21T08:12:45;99748.16;;;6.36;98.20
72925;BME280;61070;50.794;7.054;2022-11-21T08:15:11;99750.72;;;6.41;99.19
72925;BME280;61070;50.794;7.054;2022-11-21T08:17:37;99756.81;;;6.43;99.07
72925;BME280;61070;50.794;7.054;2022-11-21T08:20:04;99761.19;;;6.44;98.81
72925;BME280;61070;50.794;7.054;2022-11-21T08:22:29;99756.81;;;6.46;99.63
72925;BME280;61070;50.794;7.054;2022-11-21T08:24:55;99755.81;;;6.58;98.58
72925;BME280;61070;50.794;7.054;2022-11-21T08:27:21;99754.13;;;6.51;98.25
72925;BME280;61070;50.794;7.054;2022-11-21T08:29:47;99763.69;;;6.56;98.84
72925;BME280;61070;50.794;7.054;2022-11-21T08:32:13;99760.97;;;6.68;97.76
72925;BME280;61070;50.794;7.054;2022-11-21T08:34:38;99763.66;;;6.62;97.13
72925;BME280;61070;50.794;7.054;2022-11-21T08:37:04;99755.78;;;6.61;98.23
72925;BME280;61070;50.794;7.054;2022-11-21T08:39:29;99756.69;;;6.58;97.74
72925;BME280;61070;50.794;7.054;2022-11-21T08:41:58;99759.28;;;6.60;98.28
72925;BME280;61070;50.794;7.054;2022-11-21T08:44:30;99758.41;;;6.61;98.08
72925;BME280;61070;50.794;7.054;2022-11-21T08:46:56;99757.53;;;6.60;99.11
72925;BME280;61070;50.794;7.054;2022-11-21T08:49:21;99760.16;;;6.62;99.70
72925;BME280;61070;50.794;7.054;2022-11-21T08:51:47;99755.72;;;6.65;99.73
72925;BME280;61070;50.794;7.054;2022-11-21T08:54:16;99756.56;;;6.69;99.05
72925;BME280;61070;50.794;7.054;2022-11-21T08:56:42;99761.75;;;6.75;99.37
72925;BME280;61070;50.794;7.054;2022-11-21T08:59:08;99759.03;;;6.83;99.56
72925;BME280;61070;50.794;7.054;2022-11-21T09:01:33;99758.94;;;6.89;99.10
72925;BME280;61070;50.794;7.054;2022-11-21T09:03:58;99753.63;;;6.95;99.40
72925;BME280;61070;50.794;7.054;2022-11-21T09:06:23;99743.00;;;7.01;98.30
72925;BME280;61070;50.794;7.054;2022-11-21T09:08:49;99748.13;;;7.10;98.46
72925;BME280;61070;50.794;7.054;2022-11-21T09:11:14;99742.81;;;7.16;99.11
72925;BME280;61070;50.794;7.054;2022-11-21T09:13:39;99738.31;;;7.23;98.03
72925;BME280;61070;50.794;7.054;2022-11-21T09:16:05;99732.16;;;7.22;98.50
72925;BME280;61070;50.794;7.054;2022-11-21T09:18:51;99738.22;;;7.30;98.51
72925;BME280;61070;50.794;7.054;2022-11-21T09:21:18;99725.94;;;7.29;98.73
72925;BME280;61070;50.794;7.054;2022-11-21T09:23:43;99724.09;;;7.35;98.71
72925;BME280;61070;50.794;7.054;2022-11-21T09:26:09;99724.13;;;7.32;98.93
72925;BME280;61070;50.794;7.054;2022-11-21T09:28:35;99722.25;;;7.41;97.01
72925;BME280;61070;50.794;7.054;2022-11-21T09:31:04;99724.75;;;7.50;95.38
72925;BME280;61070;50.794;7.054;2022-11-21T09:33:30;99722.75;;;7.65;94.53
72925;BME280;61070;50.794;7.054;2022-11-21T09:35:59;99722.72;;;7.66;95.08
72925;BME280;61070;50.794;7.054;2022-11-21T09:38:25;99713.16;;;7.62;93.96
72925;BME280;61070;50.794;7.054;2022-11-21T09:40:55;99717.41;;;7.71;94.27
72925;BME280;61070;50.794;7.054;2022-11-21T09:43:33;99714.78;;;7.68;92.90
72925;BME280;61070;50.794;7.054;2022-11-21T09:46:09;99715.59;;;7.74;93.76
72925;BME280;61070;50.794;7.054;2022-11-21T09:51:16;99705.72;;;7.85;90.59
72925;BME280;61070;50.794;7.054;2022-11-21T09:54:02;99702.09;;;7.91;92.02
72925;BME280;61070;50.794;7.054;2022-11-21T09:56:32;99690.44;;;8.06;89.08
72925;BME280;61070;50.794;7.054;2022-11-21T10:01:56;99689.13;;;8.28;87.23
72925;BME280;61070;50.794;7.054;2022-11-21T10:04:22;99681.31;;;8.22;87.39
72925;BME280;61070;50.794;7.054;2022-11-21T10:06:56;99687.53;;;8.20;86.58
72925;BME280;61070;50.794;7.054;2022-11-21T10:14:56;99674.31;;;8.21;85.79
72925;BME280;61070;50.794;7.054;2022-11-21T10:17:44;99668.72;;;8.38;84.56
72925;BME280;61070;50.794;7.054;2022-11-21T10:20:41;99669.47;;;8.46;83.75
72925;BME280;61070;50.794;7.054;2022-11-21T10:28:50;99659.72;;;8.50;82.15
72925;BME280;61070;50.794;7.054;2022-11-21T10:31:17;99660.56;;;8.52;82.10
72925;BME280;61070;50.794;7.054;2022-11-21T10:33:43;99651.03;;;8.44;83.03
72925;BME280;61070;50.794;7.054;2022-11-21T10:38:42;99644.59;;;8.58;81.79
72925;BME280;61070;50.794;7.054;2022-11-21T10:41:37;99646.78;;;8.36;81.36
72925;BME280;61070;50.794;7.054;2022-11-21T10:44:24;99638.91;;;8.33;84.23
72925;BME280;61070;50.794;7.054;2022-11-21T10:47:14;99631.81;;;8.36;82.38
72925;BME280;61070;50.794;7.054;2022-11-21T10:49:41;99633.66;;;8.31;82.70
72925;BME280;61070;50.794;7.054;2022-11-21T10:52:15;99629.41;;;8.24;81.87
72925;BME280;61070;50.794;7.054;2022-11-21T10:57:28;99612.69;;;8.24;83.51
72925;BME280;61070;50.794;7.054;2022-11-21T11:00:01;99605.59;;;8.29;82.75
72925;BME280;61070;50.794;7.054;2022-11-21T11:02:39;99590.66;;;8.28;81.39
72925;BME280;61070;50.794;7.054;2022-11-21T11:05:18;99602.94;;;8.29;82.64
72925;BME280;61070;50.794;7.054;2022-11-21T11:10:28;99599.72;;;8.58;81.59
72925;BME280;61070;50.794;7.054;2022-11-21T11:12:54;99592.47;;;8.67;80.13
72925;BME280;61070;50.794;7.054;2022-11-21T11:15:52;99581.63;;;8.80;80.62
72925;BME280;61070;50.794;7.054;2022-11-21T11:18:21;99581.19;;;8.99;78.81
72925;BME280;61070;50.794;7.054;2022-11-21T11:20:47;99573.25;;;8.99;78.93
72925;BME280;61070;50.794;7.054;2022-11-21T11:25:54;99555.38;;;9.11;79.22
72925;BME280;61070;50.794;7.054;2022-11-21T11:28:20;99558.19;;;9.39;79.01
72925;BME280;61070;50.794;7.054;2022-11-21T11:30:50;99534.63;;;9.31;77.00
72925;BME280;61070;50.794;7.054;2022-11-21T11:33:35;99544.50;;;9.23;73.85
72925;BME280;61070;50.794;7.054;2022-11-21T11:38:53;99530.16;;;8.97;73.91
72925;BME280;61070;50.794;7.054;2022-11-21T11:41:41;99525.53;;;9.07;75.60
72925;BME280;61070;50.794;7.054;2022-11-21T11:44:48;99520.13;;;9.12;76.43
72925;BME280;61070;50.794;7.054;2022-11-21T11:47:43;99521.31;;;9.34;73.73
72925;BME280;61070;50.794;7.054;2022-11-21T11:50:14;99504.41;;;9.05;73.87
72925;BME280;61070;50.794;7.054;2022-11-21T11:55:50;99494.91;;;8.98;75.24
72925;BME280;61070;50.794;7.054;2022-11-21T11:58:22;99491.69;;;8.87;74.64
72925;BME280;61070;50.794;7.054;2022-11-21T12:03:20;99483.53;;;8.96;76.79
72925;BME280;61070;50.794;7.054;2022-11-21T12:06:03;99486.22;;;8.95;76.13
72925;BME280;61070;50.794;7.054;2022-11-21T12:11:49;99486.19;;;8.96;71.76
72925;BME280;61070;50.794;7.054;2022-11-21T12:14:51;99481.94;;;8.89;71.05
72925;BME280;61070;50.794;7.054;2022-11-21T12:20:36;99476.34;;;8.66;73.28
72925;BME280;61070;50.794;7.054;2022-11-21T12:23:05;99472.81;;;8.67;72.68
72925;BME280;61070;50.794;7.054;2022-11-21T12:25:36;99463.31;;;8.58;73.89
72925;BME280;61070;50.794;7.054;2022-11-21T12:28:07;99459.72;;;8.62;73.21
72925;BME280;61070;50.794;7.054;2022-11-21T12:30:56;99458.91;;;8.59;72.22
72925;BME280;61070;50.794;7.054;2022-11-21T12:33:28;99447.31;;;8.66;72.72
72925;BME280;61070;50.794;7.054;2022-11-21T12:39:03;99447.06;;;8.77;70.69
72925;BME280;61070;50.794;7.054;2022-11-21T12:44:37;99427.06;;;8.66;72.58
72925;BME280;61070;50.794;7.054;2022-11-21T12:47:28;99434.00;;;8.70;72.82
72925;BME280;61070;50.794;7.054;2022-11-21T12:50:23;99430.44;;;8.71;73.15
72925;BME280;61070;50.794;7.054;2022-11-21T12:56:44;99422.25;;;8.82;72.34
72925;BME280;61070;50.794;7.054;2022-11-21T12:59:13;99424.06;;;8.80;72.37
72925;BME280;61070;50.794;7.054;2022-11-21T13:02:32;99425.63;;;8.89;71.89
72925;BME280;61070;50.794;7.054;2022-11-21T13:04:59;99417.97;;;8.78;71.37
72925;BME280;61070;50.794;7.054;2022-11-21T13:07:27;99409.09;;;8.81;70.55
72925;BME280;61070;50.794;7.054;2022-11-21T13:09:56;99407.63;;;8.69;72.16
72925;BME280;61070;50.794;7.054;2022-11-21T13:12:32;99400.63;;;8.68;71.61
72925;BME280;61070;50.794;7.054;2022-11-21T13:15:20;99397.06;;;8.69;70.97
72925;BME280;61070;50.794;7.054;2022-11-21T13:17:57;99393.28;;;8.79;70.87
72925;BME280;61070;50.794;7.054;2022-11-21T13:20:32;99390.03;;;8.69;71.49
72925;BME280;61070;50.794;7.054;2022-11-21T13:23:01;99381.91;;;8.77;70.48
72925;BME280;61070;50.794;7.054;2022-11-21T13:28:21;99380.53;;;8.62;70.88
72925;BME280;61070;50.794;7.054;2022-11-21T13:30:52;99376.34;;;8.54;71.35
72925;BME280;61070;50.794;7.054;2022-11-21T13:35:58;99358.63;;;8.59;71.49
72925;BME280;61070;50.794;7.054;2022-11-21T13:38:23;99341.00;;;8.59;72.29
72925;BME280;61070;50.794;7.054;2022-11-21T13:40:49;99346.19;;;8.64;71.56
72925;BME280;61070;50.794;7.054;2022-11-21T13:43:34;99328.91;;;8.52;71.88
72925;BME280;61070;50.794;7.054;2022-11-21T13:46:00;99330.44;;;8.59;71.76
72925;BME280;61070;50.794;7.054;2022-11-21T13:51:31;99321.44;;;8.68;71.87
72925;BME280;61070;50.794;7.054;2022-11-21T14:07:37;99284.41;;;8.38;72.42
72925;BME280;61070;50.794;7.054;2022-11-21T14:12:53;99272.38;;;8.25;73.40
72925;BME280;61070;50.794;7.054;2022-11-21T14:18:19;99262.78;;;8.23;73.83
72925;BME280;61070;50.794;7.054;2022-11-21T14:20:54;99262.03;;;8.17;73.43
72925;BME280;61070;50.794;7.054;2022-11-21T14:23:23;99256.81;;;8.14;73.21
72925;BME280;61070;50.794;7.054;2022-11-21T14:26:04;99255.16;;;8.10;74.04
72925;BME280;61070;50.794;7.054;2022-11-21T14:28:34;99254.25;;;8.11;73.94
72925;BME280;61070;50.794;7.054;2022-11-21T14:31:10;99250.81;;;8.09;73.79
72925;BME280;61070;50.794;7.054;2022-11-21T14:33:41;99248.03;;;8.14;73.73
72925;BME280;61070;50.794;7.054;2022-11-21T14:36:13;99240.44;;;8.02;74.22
72925;BME280;61070;50.794;7.054;2022-11-21T14:46:35;99199.06;;;8.04;74.48
72925;BME280;61070;50.794;7.054;2022-11-21T14:49:18;99194.84;;;7.98;74.66
72925;BME280;61070;50.794;7.054;2022-11-21T14:51:47;99177.75;;;7.79;76.04
72925;BME280;61070;50.794;7.054;2022-11-21T14:54:16;99187.00;;;7.61;77.41